sensor_id;sensor_type;location;lat;lon;timestamp;temperature;humidity
10492;DHT22;5293;51.464;-2.566;2023-05-16T00:01:08;11.50;99.90
10492;DHT22;5293;51.464;-2.566;2023-05-16T00:03:34;11.40;99.90
10492;DHT22;5293;51.464;-2.566;2023-05-16T00:06:02;11.40;99.90
10492;DHT22;5293;51.464;-2.566;2023-05-16T00:08:28;11.30;99.90
10492;DHT22;5293;51.464;-2.566;2023-05-16T00:10:54;11.40;99.90
10492;DHT22;5293;51.464;-2.566;2023-05-16T00:13:20;11.40;99.90
10492;DHT22;5293;51.464;-2.566;2023-05-16T00:15:52;11.40;99.90
10492;DHT22;5293;51.464;-2.566;2023-05-16T00:18:21;11.40;99.90
10492;DHT22;5293;51.464;-2.566;2023-05-16T00:20:48;11.30;99.90
10492;DHT22;5293;51.464;-2.566;2023-05-16T00:23:16;11.30;99.90
10492;DHT22;5293;51.464;-2.566;2023-05-16T00:25:42;11.30;99.90
10492;DHT22;5293;51.464;-2.566;2023-05-16T00:28:07;11.20;99.90
10492;DHT22;5293;51.464;-2.566;2023-05-16T00:30:33;11.10;99.90
10492;DHT22;5293;51.464;-2.566;2023-05-16T00:32:59;11.10;99.90
10492;DHT22;5293;51.464;-2.566;2023-05-16T00:35:25;11.10;99.90
10492;DHT22;5293;51.464;-2.566;2023-05-16T00:37:51;11.00;99.90
10492;DHT22;5293;51.464;-2.566;2023-05-16T00:40:17;11.00;99.90
10492;DHT22;5293;51.464;-2.566;2023-05-16T00:42:43;11.00;99.90
10492;DHT22;5293;51.464;-2.566;2023-05-16T00:45:09;11.10;99.90
10492;DHT22;5293;51.464;-2.566;2023-05-16T00:47:35;11.10;99.90
10492;DHT22;5293;51.464;-2.566;2023-05-16T00:50:02;11.00;99.90
10492;DHT22;5293;51.464;-2.566;2023-05-16T00:52:29;11.00;99.90
10492;DHT22;5293;51.464;-2.566;2023-05-16T00:54:56;11.00;99.90
10492;DHT22;5293;51.464;-2.566;2023-05-16T00:57:21;11.00;99.90
10492;DHT22;5293;51.464;-2.566;2023-05-16T00:59:48;11.00;99.90
10492;DHT22;5293;51.464;-2.566;2023-05-16T01:02:14;10.80;99.90
10492;DHT22;5293;51.464;-2.566;2023-05-16T01:04:40;10.70;99.90
10492;DHT22;5293;51.464;-2.566;2023-05-16T01:07:07;10.70;99.90
10492;DHT22;5293;51.464;-2.566;2023-05-16T01:09:32;10.60;99.90
10492;DHT22;5293;51.464;-2.566;2023-05-16T01:18:13;10.60;99.90
10492;DHT22;5293;51.464;-2.566;2023-05-16T01:23:04;10.60;99.90
10492;DHT22;5293;51.464;-2.566;2023-05-16T01:26:19;10.60;99.90
10492;DHT22;5293;51.464;-2.566;2023-05-16T01:28:47;10.50;99.90
10492;DHT22;5293;51.464;-2.566;2023-05-16T01:31:13;10.50;99.90
10492;DHT22;5293;51.464;-2.566;2023-05-16T01:33:39;10.40;99.90
10492;DHT22;5293;51.464;-2.566;2023-05-16T01:36:13;10.40;99.90
10492;DHT22;5293;51.464;-2.566;2023-05-16T01:44:35;10.40;99.90
10492;DHT22;5293;51.464;-2.566;2023-05-16T01:47:10;10.30;99.90
10492;DHT22;5293;51.464;-2.566;2023-05-16T01:50:02;10.30;99.90
10492;DHT22;5293;51.464;-2.566;2023-05-16T01:55:18;10.30;99.90
10492;DHT22;5293;51.464;-2.566;2023-05-16T01:57:46;10.20;99.90
10492;DHT22;5293;51.464;-2.566;2023-05-16T02:00:13;10.10;99.90
10492;DHT22;5293;51.464;-2.566;2023-05-16T02:02:39;10.20;99.90
10492;DHT22;5293;51.464;-2.566;2023-05-16T02:05:05;10.10;99.90
10492;DHT22;5293;51.464;-2.566;2023-05-16T02:07:31;10.10;99.90
10492;DHT22;5293;51.464;-2.566;2023-05-16T02:09:56;10.10;99.90
10492;DHT22;5293;51.464;-2.566;2023-05-16T02:12:23;10.10;99.90
10492;DHT22;5293;51.464;-2.566;2023-05-16T02:14:48;10.00;99.90
10492;DHT22;5293;51.464;-2.566;2023-05-16T02:17:14;10.00;99.90
10492;DHT22;5293;51.464;-2.566;2023-05-16T02:19:40;9.90;99.90
10492;DHT22;5293;51.464;-2.566;2023-05-16T02:22:06;9.90;99.90
10492;DHT22;5293;51.464;-2.566;2023-05-16T02:24:31;9.90;99.90
10492;DHT22;5293;51.464;-2.566;2023-05-16T02:26:57;9.80;99.90
10492;DHT22;5293;51.464;-2.566;2023-05-16T02:29:23;9.80;99.90
10492;DHT22;5293;51.464;-2.566;2023-05-16T02:31:48;9.90;99.90
10492;DHT22;5293;51.464;-2.566;2023-05-16T02:34:14;9.90;99.90
10492;DHT22;5293;51.464;-2.566;2023-05-16T02:36:40;9.90;99.90
10492;DHT22;5293;51.464;-2.566;2023-05-16T02:39:06;9.90;99.90
10492;DHT22;5293;51.464;-2.566;2023-05-16T02:41:34;9.80;99.90
10492;DHT22;5293;51.464;-2.566;2023-05-16T02:44:00;9.80;99.90
10492;DHT22;5293;51.464;-2.566;2023-05-16T02:46:30;9.70;99.90
10492;DHT22;5293;51.464;-2.566;2023-05-16T02:48:56;9.70;99.90
10492;DHT22;5293;51.464;-2.566;2023-05-16T02:51:23;9.70;99.90
10492;DHT22;5293;51.464;-2.566;2023-05-16T02:53:50;9.80;99.90
10492;DHT22;5293;51.464;-2.566;2023-05-16T02:56:17;9.70;99.90
10492;DHT22;5293;51.464;-2.566;2023-05-16T02:58:48;9.80;99.90
10492;DHT22;5293;51.464;-2.566;2023-05-16T03:01:14;9.90;99.90
10492;DHT22;5293;51.464;-2.566;2023-05-16T03:03:40;9.90;99.90
10492;DHT22;5293;51.464;-2.566;2023-05-16T03:06:06;9.80;99.90
10492;DHT22;5293;51.464;-2.566;2023-05-16T03:08:32;9.60;99.90
10492;DHT22;5293;51.464;-2.566;2023-05-16T03:10:58;9.60;99.90
10492;DHT22;5293;51.464;-2.566;2023-05-16T03:13:23;9.50;99.90
10492;DHT22;5293;51.464;-2.566;2023-05-16T03:15:49;9.60;99.90
10492;DHT22;5293;51.464;-2.566;2023-05-16T03:18:15;9.50;99.90
10492;DHT22;5293;51.464;-2.566;2023-05-16T03:20:41;9.50;99.90
10492;DHT22;5293;51.464;-2.566;2023-05-16T03:23:06;9.50;99.90
10492;DHT22;5293;51.464;-2.566;2023-05-16T03:25:36;9.50;99.90
10492;DHT22;5293;51.464;-2.566;2023-05-16T03:28:05;9.50;99.90
10492;DHT22;5293;51.464;-2.566;2023-05-16T03:30:34;9.40;99.90
10492;DHT22;5293;51.464;-2.566;2023-05-16T03:33:00;9.30;99.90
10492;DHT22;5293;51.464;-2.566;2023-05-16T03:35:27;9.40;99.90
10492;DHT22;5293;51.464;-2.566;2023-05-16T03:37:52;9.40;99.90
10492;DHT22;5293;51.464;-2.566;2023-05-16T03:40:18;9.40;99.90
10492;DHT22;5293;51.464;-2.566;2023-05-16T03:42:44;9.40;99.90
10492;DHT22;5293;51.464;-2.566;2023-05-16T03:45:11;9.30;99.90
10492;DHT22;5293;51.464;-2.566;2023-05-16T03:47:37;9.30;99.90
10492;DHT22;5293;51.464;-2.566;2023-05-16T03:50:04;9.30;99.90
10492;DHT22;5293;51.464;-2.566;2023-05-16T03:52:30;9.20;99.90
10492;DHT22;5293;51.464;-2.566;2023-05-16T03:54:55;9.10;99.90
10492;DHT22;5293;51.464;-2.566;2023-05-16T03:57:21;9.00;99.90
10492;DHT22;5293;51.464;-2.566;2023-05-16T03:59:47;9.10;99.90
10492;DHT22;5293;51.464;-2.566;2023-05-16T04:02:13;9.10;99.90
10492;DHT22;5293;51.464;-2.566;2023-05-16T04:04:39;9.10;99.90
10492;DHT22;5293;51.464;-2.566;2023-05-16T04:07:05;9.00;99.90
10492;DHT22;5293;51.464;-2.566;2023-05-16T04:09:31;8.90;99.90
10492;DHT22;5293;51.464;-2.566;2023-05-16T04:11:57;8.90;99.90
10492;DHT22;5293;51.464;-2.566;2023-05-16T04:14:26;9.00;99.90
10492;DHT22;5293;51.464;-2.566;2023-05-16T04:16:51;9.00;99.90
10492;DHT22;5293;51.464;-2.566;2023-05-16T04:19:17;9.00;99.90
10492;DHT22;5293;51.464;-2.566;2023-05-16T04:21:43;9.00;99.90
10492;DHT22;5293;51.464;-2.566;2023-05-16T04:24:08;9.00;99.90
10492;DHT22;5293;51.464;-2.566;2023-05-16T04:26:35;9.00;99.90
10492;DHT22;5293;51.464;-2.566;2023-05-16T04:29:01;8.90;99.90
10492;DHT22;5293;51.464;-2.566;2023-05-16T04:31:27;9.00;99.90
10492;DHT22;5293;51.464;-2.566;2023-05-16T04:33:53;8.90;99.90
10492;DHT22;5293;51.464;-2.566;2023-05-16T04:36:19;9.00;99.90
10492;DHT22;5293;51.464;-2.566;2023-05-16T04:38:45;9.00;99.90
10492;DHT22;5293;51.464;-2.566;2023-05-16T04:41:11;9.00;99.90
10492;DHT22;5293;51.464;-2.566;2023-05-16T04:43:38;9.00;99.90
10492;DHT22;5293;51.464;-2.566;2023-05-16T04:46:04;9.00;99.90
10492;DHT22;5293;51.464;-2.566;2023-05-16T04:48:32;9.00;99.90
10492;DHT22;5293;51.464;-2.566;2023-05-16T04:50:58;8.90;99.90
10492;DHT22;5293;51.464;-2.566;2023-05-16T04:53:23;9.00;99.90
10492;DHT22;5293;51.464;-2.566;2023-05-16T04:55:49;9.00;99.90
10492;DHT22;5293;51.464;-2.566;2023-05-16T04:58:15;9.00;99.90
10492;DHT22;5293;51.464;-2.566;2023-05-16T05:00:40;9.00;99.90
10492;DHT22;5293;51.464;-2.566;2023-05-16T05:03:06;9.00;99.90
10492;DHT22;5293;51.464;-2.566;2023-05-16T05:05:32;9.10;99.90
10492;DHT22;5293;51.464;-2.566;2023-05-16T05:07:58;9.00;99.90
10492;DHT22;5293;51.464;-2.566;2023-05-16T05:10:25;9.00;99.90
10492;DHT22;5293;51.464;-2.566;2023-05-16T05:12:52;9.00;99.90
10492;DHT22;5293;51.464;-2.566;2023-05-16T05:15:18;9.10;99.90
10492;DHT22;5293;51.464;-2.566;2023-05-16T05:17:43;9.10;99.90
10492;DHT22;5293;51.464;-2.566;2023-05-16T05:20:10;9.10;99.90
10492;DHT22;5293;51.464;-2.566;2023-05-16T05:22:36;9.00;99.90
10492;DHT22;5293;51.464;-2.566;2023-05-16T05:25:02;9.10;99.90
10492;DHT22;5293;51.464;-2.566;2023-05-16T05:27:28;9.20;99.90
10492;DHT22;5293;51.464;-2.566;2023-05-16T05:29:55;9.20;99.90
10492;DHT22;5293;51.464;-2.566;2023-05-16T05:32:20;9.30;99.90
10492;DHT22;5293;51.464;-2.566;2023-05-16T05:34:46;9.40;99.90
10492;DHT22;5293;51.464;-2.566;2023-05-16T05:37:12;9.40;99.90
10492;DHT22;5293;51.464;-2.566;2023-05-16T05:39:38;9.50;99.90
10492;DHT22;5293;51.464;-2.566;2023-05-16T05:42:04;9.60;99.90
10492;DHT22;5293;51.464;-2.566;2023-05-16T05:44:30;9.60;99.90
10492;DHT22;5293;51.464;-2.566;2023-05-16T05:46:56;9.80;99.90
10492;DHT22;5293;51.464;-2.566;2023-05-16T05:49:23;10.00;99.90
10492;DHT22;5293;51.464;-2.566;2023-05-16T05:51:49;10.10;99.90
10492;DHT22;5293;51.464;-2.566;2023-05-16T05:54:17;10.20;99.90
10492;DHT22;5293;51.464;-2.566;2023-05-16T05:56:43;10.30;99.90
10492;DHT22;5293;51.464;-2.566;2023-05-16T05:59:09;10.40;99.90
10492;DHT22;5293;51.464;-2.566;2023-05-16T06:01:35;10.50;99.90
10492;DHT22;5293;51.464;-2.566;2023-05-16T06:04:01;10.70;99.90
10492;DHT22;5293;51.464;-2.566;2023-05-16T06:06:27;10.80;99.90
10492;DHT22;5293;51.464;-2.566;2023-05-16T06:08:53;10.90;99.90
10492;DHT22;5293;51.464;-2.566;2023-05-16T06:11:19;11.00;99.90
10492;DHT22;5293;51.464;-2.566;2023-05-16T06:13:46;11.20;99.90
10492;DHT22;5293;51.464;-2.566;2023-05-16T06:16:12;11.40;99.90
10492;DHT22;5293;51.464;-2.566;2023-05-16T06:18:37;11.50;99.90
10492;DHT22;5293;51.464;-2.566;2023-05-16T06:21:04;11.70;99.90
10492;DHT22;5293;51.464;-2.566;2023-05-16T06:23:30;11.80;99.90
10492;DHT22;5293;51.464;-2.566;2023-05-16T06:25:56;11.90;99.90
10492;DHT22;5293;51.464;-2.566;2023-05-16T06:28:22;12.10;99.90
10492;DHT22;5293;51.464;-2.566;2023-05-16T06:30:48;12.10;99.90
10492;DHT22;5293;51.464;-2.566;2023-05-16T06:33:16;12.30;99.90
10492;DHT22;5293;51.464;-2.566;2023-05-16T06:35:42;12.40;99.90
10492;DHT22;5293;51.464;-2.566;2023-05-16T06:38:08;12.40;99.90
10492;DHT22;5293;51.464;-2.566;2023-05-16T06:40:34;12.50;99.90
10492;DHT22;5293;51.464;-2.566;2023-05-16T06:42:59;12.60;99.90
10492;DHT22;5293;51.464;-2.566;2023-05-16T06:45:28;12.60;99.90
10492;DHT22;5293;51.464;-2.566;2023-05-16T06:47:54;12.50;99.90
10492;DHT22;5293;51.464;-2.566;2023-05-16T06:50:21;12.50;99.90
10492;DHT22;5293;51.464;-2.566;2023-05-16T06:52:47;12.60;99.90
10492;DHT22;5293;51.464;-2.566;2023-05-16T06:55:12;12.70;99.90
10492;DHT22;5293;51.464;-2.566;2023-05-16T06:57:38;12.80;99.90
10492;DHT22;5293;51.464;-2.566;2023-05-16T07:00:05;12.90;99.90
10492;DHT22;5293;51.464;-2.566;2023-05-16T07:02:31;12.70;99.90
10492;DHT22;5293;51.464;-2.566;2023-05-16T07:04:57;12.70;99.90
10492;DHT22;5293;51.464;-2.566;2023-05-16T07:07:22;12.90;99.90
10492;DHT22;5293;51.464;-2.566;2023-05-16T07:09:48;12.80;99.90
10492;DHT22;5293;51.464;-2.566;2023-05-16T07:12:13;12.90;99.90
10492;DHT22;5293;51.464;-2.566;2023-05-16T07:14:39;13.00;99.90
10492;DHT22;5293;51.464;-2.566;2023-05-16T07:17:06;12.90;99.90
10492;DHT22;5293;51.464;-2.566;2023-05-16T07:19:31;12.90;99.90
10492;DHT22;5293;51.464;-2.566;2023-05-16T07:21:57;13.10;99.90
10492;DHT22;5293;51.464;-2.566;2023-05-16T07:24:23;13.10;99.90
10492;DHT22;5293;51.464;-2.566;2023-05-16T07:26:48;13.10;99.90
10492;DHT22;5293;51.464;-2.566;2023-05-16T07:29:14;13.00;99.90
10492;DHT22;5293;51.464;-2.566;2023-05-16T07:31:40;13.00;99.90
10492;DHT22;5293;51.464;-2.566;2023-05-16T07:34:05;12.90;99.90
10492;DHT22;5293;51.464;-2.566;2023-05-16T07:36:32;12.80;99.90
10492;DHT22;5293;51.464;-2.566;2023-05-16T07:38:58;12.90;99.90
10492;DHT22;5293;51.464;-2.566;2023-05-16T07:41:24;13.00;99.90
10492;DHT22;5293;51.464;-2.566;2023-05-16T07:43:49;13.10;99.90
10492;DHT22;5293;51.464;-2.566;2023-05-16T07:46:15;13.10;99.90
10492;DHT22;5293;51.464;-2.566;2023-05-16T07:48:41;13.10;99.90
10492;DHT22;5293;51.464;-2.566;2023-05-16T07:51:07;13.30;99.90
10492;DHT22;5293;51.464;-2.566;2023-05-16T07:53:32;13.50;99.90
10492;DHT22;5293;51.464;-2.566;2023-05-16T07:55:58;13.60;99.90
10492;DHT22;5293;51.464;-2.566;2023-05-16T07:58:24;13.70;99.90
10492;DHT22;5293;51.464;-2.566;2023-05-16T08:00:50;13.70;99.90
10492;DHT22;5293;51.464;-2.566;2023-05-16T08:03:16;13.80;99.90
10492;DHT22;5293;51.464;-2.566;2023-05-16T08:05:41;13.90;99.90
10492;DHT22;5293;51.464;-2.566;2023-05-16T08:08:07;13.70;99.90
10492;DHT22;5293;51.464;-2.566;2023-05-16T08:10:33;13.60;99.90
10492;DHT22;5293;51.464;-2.566;2023-05-16T08:12:58;13.70;99.90
10492;DHT22;5293;51.464;-2.566;2023-05-16T08:15:26;13.90;99.90
10492;DHT22;5293;51.464;-2.566;2023-05-16T08:17:56;14.00;99.90
10492;DHT22;5293;51.464;-2.566;2023-05-16T08:20:21;14.10;99.90
10492;DHT22;5293;51.464;-2.566;2023-05-16T08:22:47;14.10;99.90
10492;DHT22;5293;51.464;-2.566;2023-05-16T08:25:13;14.30;99.90
10492;DHT22;5293;51.464;-2.566;2023-05-16T08:27:38;14.40;99.90
10492;DHT22;5293;51.464;-2.566;2023-05-16T08:30:05;14.50;99.90
10492;DHT22;5293;51.464;-2.566;2023-05-16T08:32:31;14.60;99.90
10492;DHT22;5293;51.464;-2.566;2023-05-16T08:34:56;14.60;99.90
10492;DHT22;5293;51.464;-2.566;2023-05-16T08:37:22;14.50;99.90
10492;DHT22;5293;51.464;-2.566;2023-05-16T08:39:48;14.60;99.90
10492;DHT22;5293;51.464;-2.566;2023-05-16T08:42:13;14.60;99.90
10492;DHT22;5293;51.464;-2.566;2023-05-16T08:44:39;14.70;99.90
10492;DHT22;5293;51.464;-2.566;2023-05-16T08:47:25;14.70;99.90
10492;DHT22;5293;51.464;-2.566;2023-05-16T08:49:56;14.50;99.90
10492;DHT22;5293;51.464;-2.566;2023-05-16T08:52:26;14.40;99.90
10492;DHT22;5293;51.464;-2.566;2023-05-16T08:54:58;14.40;99.90
10492;DHT22;5293;51.464;-2.566;2023-05-16T08:57:25;14.70;99.90
10492;DHT22;5293;51.464;-2.566;2023-05-16T08:59:52;14.80;99.90
10492;DHT22;5293;51.464;-2.566;2023-05-16T09:02:20;14.70;99.90
10492;DHT22;5293;51.464;-2.566;2023-05-16T09:04:47;14.80;99.90
10492;DHT22;5293;51.464;-2.566;2023-05-16T09:07:14;14.80;99.90
10492;DHT22;5293;51.464;-2.566;2023-05-16T09:09:41;15.00;99.90
10492;DHT22;5293;51.464;-2.566;2023-05-16T09:12:07;15.10;99.90
10492;DHT22;5293;51.464;-2.566;2023-05-16T09:14:32;15.10;99.90
10492;DHT22;5293;51.464;-2.566;2023-05-16T09:17:04;14.90;99.90
10492;DHT22;5293;51.464;-2.566;2023-05-16T09:19:42;14.80;99.90
10492;DHT22;5293;51.464;-2.566;2023-05-16T09:22:12;15.00;99.90
10492;DHT22;5293;51.464;-2.566;2023-05-16T09:24:39;15.10;99.90
10492;DHT22;5293;51.464;-2.566;2023-05-16T09:27:14;15.10;99.90
10492;DHT22;5293;51.464;-2.566;2023-05-16T09:29:45;15.10;99.90
10492;DHT22;5293;51.464;-2.566;2023-05-16T09:32:15;15.00;99.90
10492;DHT22;5293;51.464;-2.566;2023-05-16T09:34:45;15.00;99.90
10492;DHT22;5293;51.464;-2.566;2023-05-16T09:37:16;15.00;99.90
10492;DHT22;5293;51.464;-2.566;2023-05-16T09:39:47;15.00;99.90
10492;DHT22;5293;51.464;-2.566;2023-05-16T09:42:14;14.90;99.90
10492;DHT22;5293;51.464;-2.566;2023-05-16T09:44:40;14.80;99.90
10492;DHT22;5293;51.464;-2.566;2023-05-16T09:47:06;14.70;99.90
10492;DHT22;5293;51.464;-2.566;2023-05-16T09:49:32;14.80;99.90
10492;DHT22;5293;51.464;-2.566;2023-05-16T09:52:01;14.80;99.90
10492;DHT22;5293;51.464;-2.566;2023-05-16T09:54:31;14.80;99.90
10492;DHT22;5293;51.464;-2.566;2023-05-16T09:56:57;14.60;99.90
10492;DHT22;5293;51.464;-2.566;2023-05-16T09:59:24;14.70;99.90
10492;DHT22;5293;51.464;-2.566;2023-05-16T10:01:52;14.70;99.90
10492;DHT22;5293;51.464;-2.566;2023-05-16T10:04:17;14.60;99.90
10492;DHT22;5293;51.464;-2.566;2023-05-16T10:06:44;14.90;99.90
10492;DHT22;5293;51.464;-2.566;2023-05-16T10:09:11;14.90;99.90
10492;DHT22;5293;51.464;-2.566;2023-05-16T10:11:41;14.80;99.90
10492;DHT22;5293;51.464;-2.566;2023-05-16T10:14:10;14.80;99.90
10492;DHT22;5293;51.464;-2.566;2023-05-16T10:16:36;15.00;99.90
10492;DHT22;5293;51.464;-2.566;2023-05-16T10:19:02;15.30;99.90
10492;DHT22;5293;51.464;-2.566;2023-05-16T10:21:31;15.50;99.90
10492;DHT22;5293;51.464;-2.566;2023-05-16T10:23:58;15.40;99.90
10492;DHT22;5293;51.464;-2.566;2023-05-16T10:26:26;15.40;99.90
10492;DHT22;5293;51.464;-2.566;2023-05-16T10:28:53;15.30;99.90
10492;DHT22;5293;51.464;-2.566;2023-05-16T10:31:19;15.20;99.90
10492;DHT22;5293;51.464;-2.566;2023-05-16T10:33:46;15.40;99.90
10492;DHT22;5293;51.464;-2.566;2023-05-16T10:36:12;15.70;99.90
10492;DHT22;5293;51.464;-2.566;2023-05-16T10:38:39;15.80;99.90
10492;DHT22;5293;51.464;-2.566;2023-05-16T10:41:06;16.10;99.90
10492;DHT22;5293;51.464;-2.566;2023-05-16T10:43:32;16.20;99.90
10492;DHT22;5293;51.464;-2.566;2023-05-16T10:46:09;16.40;99.90
10492;DHT22;5293;51.464;-2.566;2023-05-16T10:48:36;16.50;99.90
10492;DHT22;5293;51.464;-2.566;2023-05-16T10:53:54;16.50;99.90
10492;DHT22;5293;51.464;-2.566;2023-05-16T10:56:28;16.20;99.90
10492;DHT22;5293;51.464;-2.566;2023-05-16T10:58:57;16.00;99.90
10492;DHT22;5293;51.464;-2.566;2023-05-16T11:01:27;16.10;99.90
10492;DHT22;5293;51.464;-2.566;2023-05-16T11:06:29;16.20;99.90
10492;DHT22;5293;51.464;-2.566;2023-05-16T11:11:46;16.50;99.90
10492;DHT22;5293;51.464;-2.566;2023-05-16T11:19:55;16.40;99.90
10492;DHT22;5293;51.464;-2.566;2023-05-16T11:22:35;16.30;99.90
10492;DHT22;5293;51.464;-2.566;2023-05-16T11:25:06;16.10;99.90
10492;DHT22;5293;51.464;-2.566;2023-05-16T11:27:44;16.00;99.90
10492;DHT22;5293;51.464;-2.566;2023-05-16T11:30:15;16.10;99.90
10492;DHT22;5293;51.464;-2.566;2023-05-16T11:32:43;16.10;99.90
10492;DHT22;5293;51.464;-2.566;2023-05-16T11:35:14;16.10;99.90
10492;DHT22;5293;51.464;-2.566;2023-05-16T11:37:40;16.10;99.90
10492;DHT22;5293;51.464;-2.566;2023-05-16T11:40:08;16.00;99.90
10492;DHT22;5293;51.464;-2.566;2023-05-16T11:42:40;16.20;99.90
10492;DHT22;5293;51.464;-2.566;2023-05-16T11:45:10;16.30;99.90
10492;DHT22;5293;51.464;-2.566;2023-05-16T11:47:40;16.40;99.90
10492;DHT22;5293;51.464;-2.566;2023-05-16T11:50:10;16.30;99.90
10492;DHT22;5293;51.464;-2.566;2023-05-16T11:52:37;16.40;99.90
10492;DHT22;5293;51.464;-2.566;2023-05-16T11:55:07;16.60;99.90
10492;DHT22;5293;51.464;-2.566;2023-05-16T11:57:36;16.70;99.90
10492;DHT22;5293;51.464;-2.566;2023-05-16T12:00:13;16.70;99.90
10492;DHT22;5293;51.464;-2.566;2023-05-16T12:02:40;16.70;99.90
10492;DHT22;5293;51.464;-2.566;2023-05-16T12:05:07;16.70;99.90
10492;DHT22;5293;51.464;-2.566;2023-05-16T12:07:34;16.50;99.90
10492;DHT22;5293;51.464;-2.566;2023-05-16T12:10:08;16.40;99.90
10492;DHT22;5293;51.464;-2.566;2023-05-16T12:12:35;16.30;99.90
10492;DHT22;5293;51.464;-2.566;2023-05-16T12:15:02;16.30;99.90
10492;DHT22;5293;51.464;-2.566;2023-05-16T12:17:28;16.40;99.90
10492;DHT22;5293;51.464;-2.566;2023-05-16T12:19:54;16.60;99.90
10492;DHT22;5293;51.464;-2.566;2023-05-16T12:22:20;16.50;99.90
10492;DHT22;5293;51.464;-2.566;2023-05-16T12:24:46;16.60;99.90
10492;DHT22;5293;51.464;-2.566;2023-05-16T12:27:11;16.50;99.90
10492;DHT22;5293;51.464;-2.566;2023-05-16T12:29:38;16.60;99.90
10492;DHT22;5293;51.464;-2.566;2023-05-16T12:32:06;16.70;99.90
10492;DHT22;5293;51.464;-2.566;2023-05-16T12:34:33;16.70;99.90
10492;DHT22;5293;51.464;-2.566;2023-05-16T12:36:58;16.80;99.90
10492;DHT22;5293;51.464;-2.566;2023-05-16T12:39:26;16.90;99.90
10492;DHT22;5293;51.464;-2.566;2023-05-16T12:41:51;17.00;99.90
10492;DHT22;5293;51.464;-2.566;2023-05-16T12:44:18;17.00;99.90
10492;DHT22;5293;51.464;-2.566;2023-05-16T12:46:50;17.10;99.90
10492;DHT22;5293;51.464;-2.566;2023-05-16T12:49:22;17.00;99.90
10492;DHT22;5293;51.464;-2.566;2023-05-16T12:51:55;17.00;99.90
10492;DHT22;5293;51.464;-2.566;2023-05-16T12:54:22;17.10;99.90
10492;DHT22;5293;51.464;-2.566;2023-05-16T12:56:48;17.20;99.90
10492;DHT22;5293;51.464;-2.566;2023-05-16T12:59:14;17.30;99.90
10492;DHT22;5293;51.464;-2.566;2023-05-16T13:01:40;17.30;99.90
10492;DHT22;5293;51.464;-2.566;2023-05-16T13:04:06;17.20;99.90
10492;DHT22;5293;51.464;-2.566;2023-05-16T13:06:33;17.30;99.90
10492;DHT22;5293;51.464;-2.566;2023-05-16T13:08:59;17.40;99.90
10492;DHT22;5293;51.464;-2.566;2023-05-16T13:11:25;17.30;99.90
10492;DHT22;5293;51.464;-2.566;2023-05-16T13:13:51;17.20;99.90
10492;DHT22;5293;51.464;-2.566;2023-05-16T13:16:17;17.20;99.90
10492;DHT22;5293;51.464;-2.566;2023-05-16T13:18:43;17.40;99.90
10492;DHT22;5293;51.464;-2.566;2023-05-16T13:21:09;17.40;99.90
10492;DHT22;5293;51.464;-2.566;2023-05-16T13:23:34;17.40;99.90
10492;DHT22;5293;51.464;-2.566;2023-05-16T13:26:00;17.40;99.90
10492;DHT22;5293;51.464;-2.566;2023-05-16T13:28:26;17.40;99.90
10492;DHT22;5293;51.464;-2.566;2023-05-16T13:30:51;17.40;99.90
10492;DHT22;5293;51.464;-2.566;2023-05-16T13:33:17;17.40;99.90
10492;DHT22;5293;51.464;-2.566;2023-05-16T13:35:43;17.40;99.90
10492;DHT22;5293;51.464;-2.566;2023-05-16T13:38:09;17.50;99.90
10492;DHT22;5293;51.464;-2.566;2023-05-16T13:40:35;17.40;99.90
10492;DHT22;5293;51.464;-2.566;2023-05-16T13:43:01;17.60;99.90
10492;DHT22;5293;51.464;-2.566;2023-05-16T13:45:27;17.50;99.90
10492;DHT22;5293;51.464;-2.566;2023-05-16T13:47:53;17.60;99.90
10492;DHT22;5293;51.464;-2.566;2023-05-16T13:50:18;17.70;99.90
10492;DHT22;5293;51.464;-2.566;2023-05-16T13:52:45;17.90;99.90
10492;DHT22;5293;51.464;-2.566;2023-05-16T13:55:12;17.90;99.90
10492;DHT22;5293;51.464;-2.566;2023-05-16T13:57:38;17.90;99.90
10492;DHT22;5293;51.464;-2.566;2023-05-16T14:00:04;18.10;99.90
10492;DHT22;5293;51.464;-2.566;2023-05-16T14:02:39;18.10;99.90
10492;DHT22;5293;51.464;-2.566;2023-05-16T14:05:06;17.90;99.90
10492;DHT22;5293;51.464;-2.566;2023-05-16T14:07:32;17.80;99.90
10492;DHT22;5293;51.464;-2.566;2023-05-16T14:09:58;17.70;99.90
10492;DHT22;5293;51.464;-2.566;2023-05-16T14:12:23;17.90;99.90
10492;DHT22;5293;51.464;-2.566;2023-05-16T14:14:49;18.20;99.90
10492;DHT22;5293;51.464;-2.566;2023-05-16T14:17:15;18.40;99.90
10492;DHT22;5293;51.464;-2.566;2023-05-16T14:19:40;18.50;99.90
10492;DHT22;5293;51.464;-2.566;2023-05-16T14:22:06;18.40;99.90
10492;DHT22;5293;51.464;-2.566;2023-05-16T14:24:32;18.30;99.90
10492;DHT22;5293;51.464;-2.566;2023-05-16T14:26:58;18.40;99.90
10492;DHT22;5293;51.464;-2.566;2023-05-16T14:29:25;18.40;99.90
10492;DHT22;5293;51.464;-2.566;2023-05-16T14:31:50;18.30;99.90
10492;DHT22;5293;51.464;-2.566;2023-05-16T14:34:16;18.20;99.90
10492;DHT22;5293;51.464;-2.566;2023-05-16T14:36:42;18.20;99.90
10492;DHT22;5293;51.464;-2.566;2023-05-16T14:39:08;18.20;99.90
10492;DHT22;5293;51.464;-2.566;2023-05-16T14:41:34;18.20;99.90
10492;DHT22;5293;51.464;-2.566;2023-05-16T14:43:59;18.40;99.90
10492;DHT22;5293;51.464;-2.566;2023-05-16T14:46:25;18.30;99.90
10492;DHT22;5293;51.464;-2.566;2023-05-16T14:48:51;18.20;99.90
10492;DHT22;5293;51.464;-2.566;2023-05-16T14:51:17;18.30;99.90
10492;DHT22;5293;51.464;-2.566;2023-05-16T14:53:42;18.40;99.90
10492;DHT22;5293;51.464;-2.566;2023-05-16T14:56:08;18.50;99.90
10492;DHT22;5293;51.464;-2.566;2023-05-16T14:58:34;18.70;99.90
10492;DHT22;5293;51.464;-2.566;2023-05-16T15:01:00;18.70;99.90
10492;DHT22;5293;51.464;-2.566;2023-05-16T15:03:25;18.60;99.90
10492;DHT22;5293;51.464;-2.566;2023-05-16T15:05:51;18.90;99.90
10492;DHT22;5293;51.464;-2.566;2023-05-16T15:08:17;18.70;99.90
10492;DHT22;5293;51.464;-2.566;2023-05-16T15:10:42;18.70;99.90
10492;DHT22;5293;51.464;-2.566;2023-05-16T15:13:08;18.70;99.90
10492;DHT22;5293;51.464;-2.566;2023-05-16T15:15:34;18.60;99.90
10492;DHT22;5293;51.464;-2.566;2023-05-16T15:18:03;18.60;99.90
10492;DHT22;5293;51.464;-2.566;2023-05-16T15:20:28;18.70;99.90
10492;DHT22;5293;51.464;-2.566;2023-05-16T15:22:54;18.60;99.90
10492;DHT22;5293;51.464;-2.566;2023-05-16T15:25:20;18.50;99.90
10492;DHT22;5293;51.464;-2.566;2023-05-16T15:27:46;18.50;99.90
10492;DHT22;5293;51.464;-2.566;2023-05-16T15:30:12;18.80;99.90
10492;DHT22;5293;51.464;-2.566;2023-05-16T15:32:39;19.10;99.90
10492;DHT22;5293;51.464;-2.566;2023-05-16T15:35:05;19.10;99.90
10492;DHT22;5293;51.464;-2.566;2023-05-16T15:37:31;19.00;99.90
10492;DHT22;5293;51.464;-2.566;2023-05-16T15:39:57;19.00;99.90
10492;DHT22;5293;51.464;-2.566;2023-05-16T15:42:22;19.00;99.90
10492;DHT22;5293;51.464;-2.566;2023-05-16T15:44:48;19.10;99.90
10492;DHT22;5293;51.464;-2.566;2023-05-16T15:47:14;19.20;99.90
10492;DHT22;5293;51.464;-2.566;2023-05-16T15:49:39;19.10;99.90
10492;DHT22;5293;51.464;-2.566;2023-05-16T15:52:05;19.00;99.90
10492;DHT22;5293;51.464;-2.566;2023-05-16T15:54:31;19.10;99.90
10492;DHT22;5293;51.464;-2.566;2023-05-16T15:56:57;19.20;99.90
10492;DHT22;5293;51.464;-2.566;2023-05-16T15:59:23;19.30;99.90
10492;DHT22;5293;51.464;-2.566;2023-05-16T16:01:48;19.10;99.90
10492;DHT22;5293;51.464;-2.566;2023-05-16T16:04:17;19.40;99.90